• Join FlightAware (Why Join?)
  • Login
  • US Flag 
10:44PM EDT


 

Airport Tracker/Info


-or-


 

Live Flight TrackerFlight Track Log ✈ N12JD ✈ 01-Jun-2013 ✈ KSRC - KUES

Flight Track Log - Related Links

Times and Time Zones

All times are in EDT time to prevent confusion due to time zone crossing. See the N12JD flight status page for this flight to view local times or setup timezone preferences in your user account.

Time Position Orientation Groundspeed Altitude Reporting Facility
EDT Latitude Longitude Course Direction KTS MPH feet Rate Location/Type
03:36PM 35.2356 -91.7297 17° North 136 157 1,100  Level Memphis Center
03:37PM 35.3069 -91.7031 17° North 177 204 3,100 1,140 Climbing Memphis Center
03:38PM 35.3550 -91.6833 19° North 177 204 4,000 1,020 Climbing Memphis Center
03:39PM 35.4031 -91.6639 18° North 177 204 5,200 1,140 Climbing Memphis Center
03:40PM 35.4533 -91.6417 20° North 185 213 6,300 1,200 Climbing Memphis Center
03:41PM 35.5078 -91.6194 18° North 196 226 7,600 1,200 Climbing Memphis Center
03:42PM 35.5667 -91.5950 19° North 196 226 8,700 1,140 Climbing Memphis Center
03:43PM 35.6211 -91.5650 24° Northeast 203 234 9,900 1,320 Climbing Memphis Center
03:44PM 35.6756 -91.5403 20° North 209 241 11,400 1,260 Climbing Memphis Center
03:45PM 35.7281 -91.5103 25° Northeast 209 241 12,500 1,140 Climbing Memphis Center
03:46PM 35.7844 -91.4831 21° North 209 241 13,700 1,140 Climbing Memphis Center
03:47PM 35.8369 -91.4556 23° Northeast 209 241 14,800 960 Climbing Memphis Center
03:48PM 35.8975 -91.4281 20° North 215 247 15,700 900 Climbing Memphis Center
03:49PM 35.9500 -91.3981 25° Northeast 214 246 16,700 900 Climbing Memphis Center
03:50PM 36.0086 -91.3706 21° North 215 247 17,600 780 Climbing Memphis Center
03:51PM 36.0653 -91.3378 25° Northeast 215 247 18,300 660 Climbing Memphis Center
03:52PM 36.1258 -91.3103 20° North 220 253 19,000 600 Climbing Memphis Center
03:53PM 36.1908 -91.2775 22° Northeast 230 265 19,600 600 Climbing Memphis Center
03:54PM 36.2514 -91.2475 22° Northeast 230 265 20,300 660 Climbing Memphis Center
03:55PM 36.3183 -91.2147 22° Northeast 236 272 21,000 600 Climbing Memphis Center
03:56PM 36.3789 -91.1819 24° Northeast 236 272 21,600 300 Climbing Memphis Center
03:57PM 36.4458 -91.1464 23° Northeast 236 272 21,600 -240 Level Memphis Center
03:58PM 36.5192 -91.1108 21° North 258 297 21,200 -540 Descending Memphis Center
03:59PM 36.5944 -91.0728 22° Northeast 277 319 20,600 -840 Descending Memphis Center
04:00PM 36.6697 -91.0347 22° Northeast 287 330 19,600 -540 Descending Memphis Center
04:02PM 36.8253 -90.9492 24° Northeast 297 342 19,000 -240 Descending Kansas City Center
04:03PM 36.9014 -90.9100 22° Northeast 296 341 19,000  Level Kansas City Center
04:04PM 36.9744 -90.8722 22° Northeast 288 331 19,000  Level Kansas City Center
04:06PM 37.0489 -90.8328 23° Northeast 289 333 19,000  Level Kansas City Center
04:07PM 37.1256 -90.7933 22° Northeast 290 334 19,000  Level Kansas City Center
04:08PM 37.1983 -90.7558 22° Northeast 290 334 19,000  Level Kansas City Center
04:09PM 37.2722 -90.7156 23° Northeast 289 333 19,000  Level Kansas City Center
04:10PM 37.3469 -90.6769 22° Northeast 288 331 19,000  Level Kansas City Center
04:11PM 37.4183 -90.6394 23° Northeast 289 333 19,000  Level Kansas City Center
04:12PM 37.5061 -90.5933 23° Northeast 287 330 19,000  Level Kansas City Center
04:13PM 37.5800 -90.5533 23° Northeast 288 331 19,000  Level Kansas City Center
04:14PM 37.6533 -90.5150 22° Northeast 286 329 19,000  Level Kansas City Center
04:15PM 37.7261 -90.4769 22° Northeast 284 327 19,000  Level Kansas City Center
04:16PM 37.7994 -90.4369 23° Northeast 286 329 19,000  Level Kansas City Center
04:17PM 37.8728 -90.3992 22° Northeast 286 329 19,000  Level Kansas City Center
04:18PM 37.9456 -90.3611 22° Northeast 284 327 19,000  Level Kansas City Center
04:19PM 38.0186 -90.3206 24° Northeast 286 329 19,000  Level Kansas City Center
04:20PM 38.1072 -90.2739 23° Northeast 287 330 19,000  Level Kansas City Center
04:21PM 38.1800 -90.2339 23° Northeast 287 330 19,000  Level Kansas City Center
04:22PM 38.2525 -90.1939 23° Northeast 287 330 19,000  Level Kansas City Center
04:23PM 38.3253 -90.1558 22° Northeast 284 327 19,000  Level Kansas City Center
04:24PM 38.3981 -90.1161 23° Northeast 286 329 19,000  Level Kansas City Center
04:25PM 38.4703 -90.0767 23° Northeast 285 328 19,000  Level Kansas City Center
04:26PM 38.5431 -90.0372 23° Northeast 286 329 19,000  Level Kansas City Center
04:27PM 38.6297 -89.9894 23° Northeast 285 328 19,000  Level Kansas City Center
04:28PM 38.7017 -89.9489 24° Northeast 285 328 19,000  Level Kansas City Center
04:29PM 38.7753 -89.9089 23° Northeast 288 331 19,000  Level Kansas City Center
04:30PM 38.8492 -89.8847 14° North 290 334 19,000  Level Kansas City Center
04:31PM 38.8928 -89.9436 314° West 243 280 19,000  Level Kansas City Center
04:32PM 38.9375 -90.0039 314° West 235 270 19,000  Level Kansas City Center
04:33PM 38.9814 -90.0633 314° West 232 267 19,000  Level Kansas City Center
04:34PM 39.0344 -90.1361 313° West 233 268 19,000  Level Kansas City Center
04:35PM 39.0789 -90.1981 313° West 236 272 19,000  Level Kansas City Center
04:36PM 39.1228 -90.2594 313° West 235 270 19,000  Level Kansas City Center
04:37PM 39.1675 -90.3214 313° West 236 272 19,000  Level Kansas City Center
04:38PM 39.2111 -90.3831 312° West 235 270 19,000  Level Kansas City Center
04:39PM 39.2567 -90.4453 313° West 238 274 19,000  Level Kansas City Center
04:40PM 39.3019 -90.5086 313° West 240 276 19,000  Level Kansas City Center
04:41PM 39.3553 -90.5836 313° West 239 275 19,000  Level Kansas City Center
04:42PM 39.3994 -90.6444 313° West 235 270 19,000  Level Kansas City Center
04:43PM 39.4442 -90.7086 312° West 237 273 19,000  Level Kansas City Center
04:44PM 39.4892 -90.7708 313° West 237 273 19,000  Level Kansas City Center
04:45PM 39.5336 -90.8331 313° West 237 273 19,000  Level Kansas City Center
04:46PM 39.5775 -90.8964 312° West 236 272 19,000  Level Kansas City Center
04:47PM 39.6217 -90.9589 313° West 236 272 19,000  Level Kansas City Center
04:48PM 39.6656 -91.0219 312° West 237 273 19,000  Level Kansas City Center
04:50PM 39.7108 -91.0836 314° West 237 273 19,000  Level Kansas City Center
04:51PM 39.7628 -91.1589 312° West 239 275 19,000  Level Kansas City Center
04:52PM 39.8064 -91.2214 312° West 237 273 19,000  Level Kansas City Center
04:53PM 39.8619 -91.2714 325° Northwest 250 288 19,000  Level Kansas City Center
04:54PM 39.9372 -91.2428 16° North 283 326 19,000  Level Kansas City Center
04:55PM 40.0111 -91.2125 17° North 283 326 19,000  Level Kansas City Center
04:56PM 40.1019 -91.1742 18° North 287 330 19,000  Level Kansas City Center
04:57PM 40.1781 -91.1428 17° North 288 331 19,000  Level Kansas City Center
04:58PM 40.2531 -91.1117 18° North 286 329 19,000  Level Kansas City Center
04:59PM 40.3344 -91.0761 18° North 286 329 19,000  Level Kansas City Center
05:00PM 40.3969 -91.0508 17° North 288 331 19,000  Level Chicago Center
05:01PM 40.4739 -91.0183 18° North 288 331 19,000  Level Chicago Center
05:02PM 40.5494 -90.9856 18° North 287 330 19,000  Level Chicago Center
05:03PM 40.6408 -90.9461 18° North 286 329 19,000  Level Chicago Center
05:04PM 40.7183 -90.9142 17° North 290 334 19,000  Level Chicago Center
05:05PM 40.7947 -90.8814 18° North 289 333 19,000  Level Chicago Center
05:06PM 40.8717 -90.8489 18° North 289 333 19,000  Level Chicago Center
05:07PM 40.9486 -90.8153 18° North 290 334 19,000  Level Chicago Center
05:09PM 41.1014 -90.7500 18° North 289 333 19,000  Level Chicago Center
05:10PM 41.1775 -90.7172 18° North 287 330 19,000  Level Chicago Center
05:11PM 41.2536 -90.6844 18° North 286 329 19,000  Level Chicago Center
05:12PM 41.3311 -90.6503 18° North 292 336 19,000  Level Chicago Center
05:13PM 41.4081 -90.6167 18° North 291 335 19,000  Level Chicago Center
05:14PM 41.5011 -90.5750 19° North 293 337 19,000  Level Chicago Center
05:15PM 41.5767 -90.5442 17° North 286 329 19,000  Level Chicago Center
05:16PM 41.6528 -90.5100 19° North 286 329 19,000  Level Chicago Center
05:17PM 41.7247 -90.4619 26° Northeast 294 338 19,000  Level Chicago Center
05:18PM 41.7761 -90.3739 52° Northeast 301 346 19,000  Level Chicago Center
05:19PM 41.8322 -90.2831 50° Northeast 300 345 19,000  Level Chicago Center
05:20PM 41.8847 -90.1972 51° Northeast 301 346 19,000  Level Chicago Center
05:21PM 41.9369 -90.1125 50° Northeast 299 344 19,000  Level Chicago Center
05:22PM 41.9889 -90.0272 51° Northeast 299 344 19,000 -120 Level Chicago Center
05:23PM 42.0436 -89.9425 49° Northeast 300 345 18,800 -780 Descending Chicago Center
05:24PM 42.1047 -89.8428 50° Northeast 299 344 17,500 -1,140 Descending Chicago Center
05:25PM 42.1594 -89.7542 50° Northeast 305 351 16,600 -960 Descending Chicago Center
05:26PM 42.2136 -89.6675 50° Northeast 304 350 15,600 -1,020 Descending Chicago Center
05:27PM 42.2669 -89.5819 50° Northeast 300 345 14,600 -960 Descending Chicago Center
05:28PM 42.3186 -89.4950 51° Northeast 295 339 13,700 -1,080 Descending Chicago Center
05:29PM 42.3803 -89.3972 49° Northeast 292 336 12,500 -1,080 Descending Chicago Center
05:30PM 42.4319 -89.3114 51° Northeast 293 337 11,500 -1,020 Descending Chicago Center
05:31PM 42.4828 -89.2269 51° Northeast 291 335 10,500 -1,020 Descending Chicago Center
05:32PM 42.5333 -89.1461 50° Northeast 282 325 9,500 -960 Descending Chicago Center
05:33PM 42.5856 -89.0711 47° Northeast 275 316 8,600 -960 Descending Chicago Center
05:34PM 42.6325 -89.0031 47° Northeast 249 287 7,600 -1,020 Descending Chicago Center
05:35PM 42.6775 -88.9378 47° Northeast 240 276 6,600 -1,020 Descending Chicago Center
05:36PM 42.7200 -88.8736 48° Northeast 232 267 5,600 -840 Descending Chicago Center
05:38PM 42.7628 -88.7967 53° Northeast 221 254 5,000 -300 Descending Chicago Center
05:39PM 42.7992 -88.7250 55° Northeast 226 260 5,000  Level Chicago Center
05:40PM 42.8372 -88.6472 56° Northeast 239 275 5,000 -300 Level Chicago Center
05:41PM 42.8747 -88.5711 56° Northeast 243 280 4,400 -840 Descending Chicago Center
05:42PM 42.9050 -88.5097 56° Northeast 217 250 3,400 -720 Descending Chicago Center
05:43PM 42.9325 -88.4550 56° Northeast 191 220 3,000 -240 Descending Chicago Center
05:44PM 42.9608 -88.3969 56° Northeast 184 212 3,000 -240 Level Chicago Center
05:45PM 42.9903 -88.3428 53° Northeast 181 208 2,600 -180 Descending Chicago Center
05:46PM 43.0144 -88.2761 64° Northeast 173 199 2,700 -180 Climbing Chicago Center
05:47PM 43.0100 -88.2325 98° East 152 175 2,300 -660 Descending Chicago Center
05:48PM 43.0378 -88.2133 27° Northeast 143 165 1,400 -900 Descending Chicago Center
05:50PM 43.0333 -88.2333 North  Level FlightAware Approximate